sensor_id;sensor_type;location;lat;lon;timestamp;P1;durP1;ratioP1;P2;durP2;ratioP2
19691;SDS011;42748;50.016;19.890;2022-11-13T00:02:01;110.27;;;38.10;;
19691;SDS011;42748;50.016;19.890;2022-11-13T00:04:46;114.43;;;38.65;;
19691;SDS011;42748;50.016;19.890;2022-11-13T00:07:32;110.68;;;37.45;;
19691;SDS011;42748;50.016;19.890;2022-11-13T00:10:17;111.90;;;38.70;;
19691;SDS011;42748;50.016;19.890;2022-11-13T00:13:03;105.50;;;36.63;;
19691;SDS011;42748;50.016;19.890;2022-11-13T00:15:58;105.93;;;36.03;;
19691;SDS011;42748;50.016;19.890;2022-11-13T00:18:45;112.07;;;37.90;;
19691;SDS011;42748;50.016;19.890;2022-11-13T00:21:31;108.38;;;36.72;;
19691;SDS011;42748;50.016;19.890;2022-11-13T00:24:17;104.47;;;34.57;;
19691;SDS011;42748;50.016;19.890;2022-11-13T00:27:03;111.47;;;37.60;;
19691;SDS011;42748;50.016;19.890;2022-11-13T00:29:48;101.82;;;37.28;;
19691;SDS011;42748;50.016;19.890;2022-11-13T00:32:34;106.63;;;36.83;;
19691;SDS011;42748;50.016;19.890;2022-11-13T00:35:22;104.97;;;37.00;;
19691;SDS011;42748;50.016;19.890;2022-11-13T00:38:07;98.93;;;35.17;;
19691;SDS011;42748;50.016;19.890;2022-11-13T00:40:53;106.45;;;37.53;;
19691;SDS011;42748;50.016;19.890;2022-11-13T00:43:39;106.43;;;38.40;;
19691;SDS011;42748;50.016;19.890;2022-11-13T00:46:25;100.40;;;35.40;;
19691;SDS011;42748;50.016;19.890;2022-11-13T00:49:10;108.75;;;36.42;;
19691;SDS011;42748;50.016;19.890;2022-11-13T00:51:57;103.95;;;35.58;;
19691;SDS011;42748;50.016;19.890;2022-11-13T00:54:44;99.93;;;36.40;;
19691;SDS011;42748;50.016;19.890;2022-11-13T00:57:30;99.60;;;34.87;;
19691;SDS011;42748;50.016;19.890;2022-11-13T01:00:16;105.40;;;36.33;;
19691;SDS011;42748;50.016;19.890;2022-11-13T01:03:01;107.87;;;35.70;;
19691;SDS011;42748;50.016;19.890;2022-11-13T01:05:47;103.95;;;35.38;;
19691;SDS011;42748;50.016;19.890;2022-11-13T01:08:33;100.07;;;36.80;;
19691;SDS011;42748;50.016;19.890;2022-11-13T01:11:19;96.72;;;34.55;;
19691;SDS011;42748;50.016;19.890;2022-11-13T01:14:06;97.32;;;33.97;;
19691;SDS011;42748;50.016;19.890;2022-11-13T01:16:53;109.87;;;36.27;;
19691;SDS011;42748;50.016;19.890;2022-11-13T01:19:38;111.93;;;36.77;;
19691;SDS011;42748;50.016;19.890;2022-11-13T01:22:24;97.90;;;34.23;;
19691;SDS011;42748;50.016;19.890;2022-11-13T01:25:09;113.67;;;37.80;;
19691;SDS011;42748;50.016;19.890;2022-11-13T01:27:55;112.00;;;38.10;;
19691;SDS011;42748;50.016;19.890;2022-11-13T01:30:40;124.67;;;39.37;;
19691;SDS011;42748;50.016;19.890;2022-11-13T01:33:26;119.13;;;39.23;;
19691;SDS011;42748;50.016;19.890;2022-11-13T01:36:14;118.13;;;39.00;;
19691;SDS011;42748;50.016;19.890;2022-11-13T01:39:02;120.70;;;40.43;;
19691;SDS011;42748;50.016;19.890;2022-11-13T01:41:48;121.33;;;39.83;;
19691;SDS011;42748;50.016;19.890;2022-11-13T01:44:47;125.07;;;41.13;;
19691;SDS011;42748;50.016;19.890;2022-11-13T01:47:35;121.47;;;40.13;;
19691;SDS011;42748;50.016;19.890;2022-11-13T01:50:20;120.83;;;39.57;;
19691;SDS011;42748;50.016;19.890;2022-11-13T01:53:06;118.53;;;40.57;;
19691;SDS011;42748;50.016;19.890;2022-11-13T01:55:53;125.03;;;39.33;;
19691;SDS011;42748;50.016;19.890;2022-11-13T01:58:39;121.87;;;39.70;;
19691;SDS011;42748;50.016;19.890;2022-11-13T02:01:28;111.70;;;37.07;;
19691;SDS011;42748;50.016;19.890;2022-11-13T02:04:13;117.77;;;39.13;;
19691;SDS011;42748;50.016;19.890;2022-11-13T02:07:00;117.90;;;39.20;;
19691;SDS011;42748;50.016;19.890;2022-11-13T02:09:49;122.23;;;41.10;;
19691;SDS011;42748;50.016;19.890;2022-11-13T02:12:38;114.22;;;39.83;;
19691;SDS011;42748;50.016;19.890;2022-11-13T02:15:27;119.40;;;40.07;;
19691;SDS011;42748;50.016;19.890;2022-11-13T02:18:17;121.53;;;40.83;;
19691;SDS011;42748;50.016;19.890;2022-11-13T02:21:11;114.30;;;39.30;;
19691;SDS011;42748;50.016;19.890;2022-11-13T02:27:14;129.20;;;40.05;;
19691;SDS011;42748;50.016;19.890;2022-11-13T02:30:20;119.77;;;39.93;;
19691;SDS011;42748;50.016;19.890;2022-11-13T02:33:18;120.17;;;38.07;;
19691;SDS011;42748;50.016;19.890;2022-11-13T02:36:05;118.10;;;38.10;;
19691;SDS011;42748;50.016;19.890;2022-11-13T02:38:53;122.83;;;39.90;;
19691;SDS011;42748;50.016;19.890;2022-11-13T02:41:42;115.37;;;39.63;;
19691;SDS011;42748;50.016;19.890;2022-11-13T02:44:28;125.63;;;40.70;;
19691;SDS011;42748;50.016;19.890;2022-11-13T02:47:14;114.10;;;38.60;;
19691;SDS011;42748;50.016;19.890;2022-11-13T02:50:00;115.80;;;39.93;;
19691;SDS011;42748;50.016;19.890;2022-11-13T02:52:45;111.33;;;38.40;;
19691;SDS011;42748;50.016;19.890;2022-11-13T02:55:35;115.20;;;38.50;;
19691;SDS011;42748;50.016;19.890;2022-11-13T02:58:21;106.82;;;37.30;;
19691;SDS011;42748;50.016;19.890;2022-11-13T03:01:07;113.20;;;39.00;;
19691;SDS011;42748;50.016;19.890;2022-11-13T03:03:53;110.50;;;38.13;;
19691;SDS011;42748;50.016;19.890;2022-11-13T03:06:42;113.90;;;38.15;;
19691;SDS011;42748;50.016;19.890;2022-11-13T03:09:28;127.53;;;38.72;;
19691;SDS011;42748;50.016;19.890;2022-11-13T03:12:13;120.80;;;37.53;;
19691;SDS011;42748;50.016;19.890;2022-11-13T03:14:59;118.47;;;38.03;;
19691;SDS011;42748;50.016;19.890;2022-11-13T03:17:45;121.37;;;38.70;;
19691;SDS011;42748;50.016;19.890;2022-11-13T03:20:31;134.50;;;39.73;;
19691;SDS011;42748;50.016;19.890;2022-11-13T03:23:17;110.47;;;37.30;;
19691;SDS011;42748;50.016;19.890;2022-11-13T03:26:07;118.83;;;37.10;;
19691;SDS011;42748;50.016;19.890;2022-11-13T03:28:54;115.10;;;36.77;;
19691;SDS011;42748;50.016;19.890;2022-11-13T03:31:40;118.87;;;36.77;;
19691;SDS011;42748;50.016;19.890;2022-11-13T03:34:26;111.80;;;34.77;;
19691;SDS011;42748;50.016;19.890;2022-11-13T03:37:12;120.53;;;36.03;;
19691;SDS011;42748;50.016;19.890;2022-11-13T03:39:58;118.00;;;37.30;;
19691;SDS011;42748;50.016;19.890;2022-11-13T03:42:44;111.83;;;35.73;;
19691;SDS011;42748;50.016;19.890;2022-11-13T03:45:30;118.27;;;36.30;;
19691;SDS011;42748;50.016;19.890;2022-11-13T03:48:16;110.70;;;35.97;;
19691;SDS011;42748;50.016;19.890;2022-11-13T03:51:02;113.97;;;36.60;;
19691;SDS011;42748;50.016;19.890;2022-11-13T03:53:49;129.80;;;37.17;;
19691;SDS011;42748;50.016;19.890;2022-11-13T03:56:35;117.20;;;38.63;;
19691;SDS011;42748;50.016;19.890;2022-11-13T03:59:20;121.67;;;37.53;;
19691;SDS011;42748;50.016;19.890;2022-11-13T04:02:06;136.77;;;39.87;;
19691;SDS011;42748;50.016;19.890;2022-11-13T04:04:51;129.13;;;39.03;;
19691;SDS011;42748;50.016;19.890;2022-11-13T04:07:36;128.77;;;38.47;;
19691;SDS011;42748;50.016;19.890;2022-11-13T04:10:22;126.40;;;37.97;;
19691;SDS011;42748;50.016;19.890;2022-11-13T04:13:08;130.13;;;37.57;;
19691;SDS011;42748;50.016;19.890;2022-11-13T04:15:54;139.00;;;37.17;;
19691;SDS011;42748;50.016;19.890;2022-11-13T04:18:39;127.87;;;35.83;;
19691;SDS011;42748;50.016;19.890;2022-11-13T04:21:25;118.70;;;34.83;;
19691;SDS011;42748;50.016;19.890;2022-11-13T04:24:11;123.83;;;34.63;;
19691;SDS011;42748;50.016;19.890;2022-11-13T04:26:57;135.83;;;34.73;;
19691;SDS011;42748;50.016;19.890;2022-11-13T04:29:43;124.33;;;35.53;;
19691;SDS011;42748;50.016;19.890;2022-11-13T04:32:28;138.00;;;36.43;;
19691;SDS011;42748;50.016;19.890;2022-11-13T04:35:14;122.20;;;35.70;;
19691;SDS011;42748;50.016;19.890;2022-11-13T04:38:00;125.80;;;36.83;;
19691;SDS011;42748;50.016;19.890;2022-11-13T04:40:48;127.87;;;36.80;;
19691;SDS011;42748;50.016;19.890;2022-11-13T04:43:35;128.10;;;34.67;;
19691;SDS011;42748;50.016;19.890;2022-11-13T04:46:21;129.67;;;36.87;;
19691;SDS011;42748;50.016;19.890;2022-11-13T04:49:07;125.43;;;36.43;;
19691;SDS011;42748;50.016;19.890;2022-11-13T04:51:53;139.60;;;37.73;;
19691;SDS011;42748;50.016;19.890;2022-11-13T04:54:38;134.07;;;37.00;;
19691;SDS011;42748;50.016;19.890;2022-11-13T04:57:24;123.87;;;35.80;;
19691;SDS011;42748;50.016;19.890;2022-11-13T05:00:10;134.77;;;37.43;;
19691;SDS011;42748;50.016;19.890;2022-11-13T05:02:56;126.80;;;35.17;;
19691;SDS011;42748;50.016;19.890;2022-11-13T05:05:42;121.53;;;36.03;;
19691;SDS011;42748;50.016;19.890;2022-11-13T05:08:28;134.07;;;37.00;;
19691;SDS011;42748;50.016;19.890;2022-11-13T05:11:14;122.13;;;37.30;;
19691;SDS011;42748;50.016;19.890;2022-11-13T05:14:00;120.23;;;35.33;;
19691;SDS011;42748;50.016;19.890;2022-11-13T05:16:47;114.33;;;36.03;;
19691;SDS011;42748;50.016;19.890;2022-11-13T05:19:34;124.17;;;34.87;;
19691;SDS011;42748;50.016;19.890;2022-11-13T05:22:20;124.70;;;36.27;;
19691;SDS011;42748;50.016;19.890;2022-11-13T05:25:05;120.67;;;36.33;;
19691;SDS011;42748;50.016;19.890;2022-11-13T05:27:51;123.33;;;36.23;;
19691;SDS011;42748;50.016;19.890;2022-11-13T05:30:37;128.33;;;36.17;;
19691;SDS011;42748;50.016;19.890;2022-11-13T05:33:22;129.07;;;35.40;;
19691;SDS011;42748;50.016;19.890;2022-11-13T05:36:09;132.07;;;35.03;;
19691;SDS011;42748;50.016;19.890;2022-11-13T05:38:56;127.27;;;34.33;;
19691;SDS011;42748;50.016;19.890;2022-11-13T05:41:42;131.10;;;34.65;;
19691;SDS011;42748;50.016;19.890;2022-11-13T05:44:28;124.70;;;33.77;;
19691;SDS011;42748;50.016;19.890;2022-11-13T05:47:13;137.50;;;35.60;;
19691;SDS011;42748;50.016;19.890;2022-11-13T05:49:59;134.50;;;35.17;;
19691;SDS011;42748;50.016;19.890;2022-11-13T05:52:45;138.87;;;35.73;;
19691;SDS011;42748;50.016;19.890;2022-11-13T05:55:32;120.77;;;32.33;;
19691;SDS011;42748;50.016;19.890;2022-11-13T05:58:17;132.33;;;34.97;;
19691;SDS011;42748;50.016;19.890;2022-11-13T06:01:11;133.70;;;34.23;;
19691;SDS011;42748;50.016;19.890;2022-11-13T06:03:59;132.60;;;34.07;;
19691;SDS011;42748;50.016;19.890;2022-11-13T06:06:46;134.83;;;33.90;;
19691;SDS011;42748;50.016;19.890;2022-11-13T06:09:32;134.43;;;32.80;;
19691;SDS011;42748;50.016;19.890;2022-11-13T06:12:17;130.57;;;31.37;;
19691;SDS011;42748;50.016;19.890;2022-11-13T06:15:02;134.07;;;32.43;;
19691;SDS011;42748;50.016;19.890;2022-11-13T06:17:49;123.73;;;32.13;;
19691;SDS011;42748;50.016;19.890;2022-11-13T06:20:34;137.03;;;32.40;;
19691;SDS011;42748;50.016;19.890;2022-11-13T06:23:21;124.27;;;32.37;;
19691;SDS011;42748;50.016;19.890;2022-11-13T06:29:22;116.33;;;30.47;;
19691;SDS011;42748;50.016;19.890;2022-11-13T06:32:08;132.83;;;28.83;;
19691;SDS011;42748;50.016;19.890;2022-11-13T06:34:54;119.53;;;29.90;;
19691;SDS011;42748;50.016;19.890;2022-11-13T06:37:39;158.63;;;29.80;;
19691;SDS011;42748;50.016;19.890;2022-11-13T06:40:25;125.17;;;31.10;;
19691;SDS011;42748;50.016;19.890;2022-11-13T06:43:10;215.83;;;30.50;;
19691;SDS011;42748;50.016;19.890;2022-11-13T06:45:56;120.33;;;28.90;;
19691;SDS011;42748;50.016;19.890;2022-11-13T06:48:42;121.20;;;28.40;;
19691;SDS011;42748;50.016;19.890;2022-11-13T06:51:29;110.27;;;28.43;;
19691;SDS011;42748;50.016;19.890;2022-11-13T06:54:15;107.83;;;28.40;;
19691;SDS011;42748;50.016;19.890;2022-11-13T06:57:01;141.23;;;29.40;;
19691;SDS011;42748;50.016;19.890;2022-11-13T06:59:47;110.50;;;25.77;;
19691;SDS011;42748;50.016;19.890;2022-11-13T07:02:32;125.50;;;27.87;;
19691;SDS011;42748;50.016;19.890;2022-11-13T07:05:18;103.67;;;25.80;;
19691;SDS011;42748;50.016;19.890;2022-11-13T07:08:04;118.73;;;26.37;;
19691;SDS011;42748;50.016;19.890;2022-11-13T07:10:54;102.50;;;27.53;;
19691;SDS011;42748;50.016;19.890;2022-11-13T07:13:41;176.40;;;26.37;;
19691;SDS011;42748;50.016;19.890;2022-11-13T07:16:26;150.70;;;27.00;;
19691;SDS011;42748;50.016;19.890;2022-11-13T07:19:32;99.73;;;26.93;;
19691;SDS011;42748;50.016;19.890;2022-11-13T07:22:17;107.13;;;27.57;;
19691;SDS011;42748;50.016;19.890;2022-11-13T07:25:04;94.97;;;26.90;;
19691;SDS011;42748;50.016;19.890;2022-11-13T07:27:50;121.83;;;27.77;;
19691;SDS011;42748;50.016;19.890;2022-11-13T07:30:36;100.53;;;27.67;;
19691;SDS011;42748;50.016;19.890;2022-11-13T07:33:22;87.27;;;25.83;;
19691;SDS011;42748;50.016;19.890;2022-11-13T07:36:08;256.70;;;28.43;;
19691;SDS011;42748;50.016;19.890;2022-11-13T07:38:54;106.17;;;28.93;;
19691;SDS011;42748;50.016;19.890;2022-11-13T07:41:44;112.93;;;26.83;;
19691;SDS011;42748;50.016;19.890;2022-11-13T07:44:31;91.70;;;27.07;;
19691;SDS011;42748;50.016;19.890;2022-11-13T07:47:37;94.60;;;28.13;;
19691;SDS011;42748;50.016;19.890;2022-11-13T07:50:23;84.17;;;26.73;;
19691;SDS011;42748;50.016;19.890;2022-11-13T07:53:09;89.87;;;27.07;;
19691;SDS011;42748;50.016;19.890;2022-11-13T07:55:55;85.47;;;26.17;;
19691;SDS011;42748;50.016;19.890;2022-11-13T07:58:43;143.93;;;26.43;;
19691;SDS011;42748;50.016;19.890;2022-11-13T08:01:29;110.67;;;25.53;;
19691;SDS011;42748;50.016;19.890;2022-11-13T08:04:15;96.00;;;27.60;;
19691;SDS011;42748;50.016;19.890;2022-11-13T08:07:00;132.90;;;26.47;;
19691;SDS011;42748;50.016;19.890;2022-11-13T08:09:46;103.87;;;24.93;;
19691;SDS011;42748;50.016;19.890;2022-11-13T08:12:32;88.00;;;26.70;;
19691;SDS011;42748;50.016;19.890;2022-11-13T08:15:18;69.93;;;22.37;;
19691;SDS011;42748;50.016;19.890;2022-11-13T08:18:03;85.13;;;25.93;;
19691;SDS011;42748;50.016;19.890;2022-11-13T08:20:50;134.43;;;28.07;;
19691;SDS011;42748;50.016;19.890;2022-11-13T08:23:35;86.83;;;26.63;;
19691;SDS011;42748;50.016;19.890;2022-11-13T08:26:21;92.90;;;26.50;;
19691;SDS011;42748;50.016;19.890;2022-11-13T08:29:07;75.20;;;26.07;;
19691;SDS011;42748;50.016;19.890;2022-11-13T08:31:52;84.23;;;25.23;;
19691;SDS011;42748;50.016;19.890;2022-11-13T08:34:38;80.13;;;25.80;;
19691;SDS011;42748;50.016;19.890;2022-11-13T08:37:24;84.03;;;26.27;;
19691;SDS011;42748;50.016;19.890;2022-11-13T08:40:09;100.37;;;23.77;;
19691;SDS011;42748;50.016;19.890;2022-11-13T08:42:59;82.67;;;26.50;;
19691;SDS011;42748;50.016;19.890;2022-11-13T08:45:46;74.07;;;26.00;;
19691;SDS011;42748;50.016;19.890;2022-11-13T08:48:32;60.10;;;24.13;;
19691;SDS011;42748;50.016;19.890;2022-11-13T08:51:17;105.33;;;28.43;;
19691;SDS011;42748;50.016;19.890;2022-11-13T08:54:04;82.77;;;26.57;;
19691;SDS011;42748;50.016;19.890;2022-11-13T08:56:49;78.03;;;26.17;;
19691;SDS011;42748;50.016;19.890;2022-11-13T08:59:41;72.43;;;27.47;;
19691;SDS011;42748;50.016;19.890;2022-11-13T09:02:27;67.47;;;26.30;;
19691;SDS011;42748;50.016;19.890;2022-11-13T09:05:12;66.87;;;24.90;;
19691;SDS011;42748;50.016;19.890;2022-11-13T09:07:59;77.73;;;27.40;;
19691;SDS011;42748;50.016;19.890;2022-11-13T09:10:45;82.00;;;29.17;;
19691;SDS011;42748;50.016;19.890;2022-11-13T09:13:32;68.80;;;26.80;;
19691;SDS011;42748;50.016;19.890;2022-11-13T09:16:21;69.77;;;26.33;;
19691;SDS011;42748;50.016;19.890;2022-11-13T09:19:07;70.57;;;26.53;;
19691;SDS011;42748;50.016;19.890;2022-11-13T09:21:52;78.30;;;29.13;;
19691;SDS011;42748;50.016;19.890;2022-11-13T09:24:38;70.97;;;27.40;;
19691;SDS011;42748;50.016;19.890;2022-11-13T09:27:24;73.37;;;27.53;;
19691;SDS011;42748;50.016;19.890;2022-11-13T09:30:09;73.97;;;28.03;;
19691;SDS011;42748;50.016;19.890;2022-11-13T09:32:57;71.60;;;27.40;;
19691;SDS011;42748;50.016;19.890;2022-11-13T09:35:43;74.93;;;27.13;;
19691;SDS011;42748;50.016;19.890;2022-11-13T09:38:29;70.38;;;26.80;;
19691;SDS011;42748;50.016;19.890;2022-11-13T09:41:27;72.55;;;27.48;;
19691;SDS011;42748;50.016;19.890;2022-11-13T09:44:39;70.10;;;26.42;;
19691;SDS011;42748;50.016;19.890;2022-11-13T09:47:30;73.00;;;26.02;;
19691;SDS011;42748;50.016;19.890;2022-11-13T09:50:22;69.63;;;26.02;;
19691;SDS011;42748;50.016;19.890;2022-11-13T09:53:11;72.63;;;26.17;;
19691;SDS011;42748;50.016;19.890;2022-11-13T09:56:17;68.68;;;24.83;;
19691;SDS011;42748;50.016;19.890;2022-11-13T10:11:57;60.33;;;25.03;;
19691;SDS011;42748;50.016;19.890;2022-11-13T10:14:50;65.00;;;25.92;;
19691;SDS011;42748;50.016;19.890;2022-11-13T10:17:38;66.95;;;26.23;;
19691;SDS011;42748;50.016;19.890;2022-11-13T10:20:34;67.45;;;25.95;;
19691;SDS011;42748;50.016;19.890;2022-11-13T10:23:28;65.75;;;26.20;;
19691;SDS011;42748;50.016;19.890;2022-11-13T10:26:18;69.88;;;27.38;;
19691;SDS011;42748;50.016;19.890;2022-11-13T10:32:14;74.60;;;27.77;;
19691;SDS011;42748;50.016;19.890;2022-11-13T10:38:02;76.10;;;28.15;;
19691;SDS011;42748;50.016;19.890;2022-11-13T10:41:02;73.50;;;27.95;;
19691;SDS011;42748;50.016;19.890;2022-11-13T10:44:03;74.55;;;28.33;;
19691;SDS011;42748;50.016;19.890;2022-11-13T10:46:49;71.50;;;27.23;;
19691;SDS011;42748;50.016;19.890;2022-11-13T10:49:35;79.43;;;28.23;;
19691;SDS011;42748;50.016;19.890;2022-11-13T10:52:22;74.20;;;28.67;;
19691;SDS011;42748;50.016;19.890;2022-11-13T10:55:19;76.85;;;29.20;;
19691;SDS011;42748;50.016;19.890;2022-11-13T10:58:16;77.53;;;29.13;;
19691;SDS011;42748;50.016;19.890;2022-11-13T11:01:22;74.40;;;27.38;;
19691;SDS011;42748;50.016;19.890;2022-11-13T11:04:21;79.68;;;29.08;;
19691;SDS011;42748;50.016;19.890;2022-11-13T11:07:19;80.63;;;29.00;;
19691;SDS011;42748;50.016;19.890;2022-11-13T11:10:30;87.28;;;30.52;;
19691;SDS011;42748;50.016;19.890;2022-11-13T11:13:21;87.97;;;31.40;;
19691;SDS011;42748;50.016;19.890;2022-11-13T11:16:08;84.03;;;30.20;;
19691;SDS011;42748;50.016;19.890;2022-11-13T11:19:00;80.28;;;29.95;;
19691;SDS011;42748;50.016;19.890;2022-11-13T11:21:51;82.47;;;30.45;;
19691;SDS011;42748;50.016;19.890;2022-11-13T11:24:42;88.88;;;32.65;;
19691;SDS011;42748;50.016;19.890;2022-11-13T11:30:45;78.75;;;30.67;;
19691;SDS011;42748;50.016;19.890;2022-11-13T11:33:36;88.70;;;33.03;;
19691;SDS011;42748;50.016;19.890;2022-11-13T11:43:20;80.45;;;30.65;;
19691;SDS011;42748;50.016;19.890;2022-11-13T11:46:11;81.18;;;31.02;;
19691;SDS011;42748;50.016;19.890;2022-11-13T11:48:58;83.50;;;32.00;;
19691;SDS011;42748;50.016;19.890;2022-11-13T11:54:41;78.60;;;30.98;;
19691;SDS011;42748;50.016;19.890;2022-11-13T12:00:56;86.93;;;33.80;;
19691;SDS011;42748;50.016;19.890;2022-11-13T12:15:52;82.22;;;30.58;;
19691;SDS011;42748;50.016;19.890;2022-11-13T12:24:39;87.25;;;34.58;;
19691;SDS011;42748;50.016;19.890;2022-11-13T12:27:34;86.60;;;33.63;;
19691;SDS011;42748;50.016;19.890;2022-11-13T12:36:13;87.93;;;34.45;;
19691;SDS011;42748;50.016;19.890;2022-11-13T12:39:05;85.07;;;34.30;;
19691;SDS011;42748;50.016;19.890;2022-11-13T12:42:10;89.95;;;36.45;;
19691;SDS011;42748;50.016;19.890;2022-11-13T12:48:33;85.05;;;33.28;;
19691;SDS011;42748;50.016;19.890;2022-11-13T12:51:35;88.88;;;34.20;;
19691;SDS011;42748;50.016;19.890;2022-11-13T12:54:25;89.03;;;34.70;;
19691;SDS011;42748;50.016;19.890;2022-11-13T12:57:18;92.43;;;36.63;;
19691;SDS011;42748;50.016;19.890;2022-11-13T13:00:24;92.95;;;35.92;;
19691;SDS011;42748;50.016;19.890;2022-11-13T13:18:29;88.00;;;36.35;;
19691;SDS011;42748;50.016;19.890;2022-11-13T13:21:20;89.90;;;35.55;;
19691;SDS011;42748;50.016;19.890;2022-11-13T13:24:27;83.72;;;36.08;;
19691;SDS011;42748;50.016;19.890;2022-11-13T13:27:26;92.38;;;37.55;;
19691;SDS011;42748;50.016;19.890;2022-11-13T13:30:14;96.15;;;39.03;;
19691;SDS011;42748;50.016;19.890;2022-11-13T13:33:24;92.30;;;36.20;;
19691;SDS011;42748;50.016;19.890;2022-11-13T13:42:08;97.85;;;37.75;;
19691;SDS011;42748;50.016;19.890;2022-11-13T13:48:19;96.18;;;37.53;;
19691;SDS011;42748;50.016;19.890;2022-11-13T13:51:17;84.63;;;35.53;;
19691;SDS011;42748;50.016;19.890;2022-11-13T13:54:06;91.22;;;36.13;;
19691;SDS011;42748;50.016;19.890;2022-11-13T13:56:54;83.70;;;34.03;;
19691;SDS011;42748;50.016;19.890;2022-11-13T13:59:42;82.32;;;32.95;;
19691;SDS011;42748;50.016;19.890;2022-11-13T14:02:31;84.35;;;34.40;;
19691;SDS011;42748;50.016;19.890;2022-11-13T14:08:15;82.38;;;34.80;;
19691;SDS011;42748;50.016;19.890;2022-11-13T14:11:14;77.55;;;32.63;;
19691;SDS011;42748;50.016;19.890;2022-11-13T14:14:18;78.05;;;31.20;;
19691;SDS011;42748;50.016;19.890;2022-11-13T14:17:07;74.82;;;30.50;;
19691;SDS011;42748;50.016;19.890;2022-11-13T14:19:54;78.40;;;31.92;;
19691;SDS011;42748;50.016;19.890;2022-11-13T14:22:45;76.22;;;32.03;;
19691;SDS011;42748;50.016;19.890;2022-11-13T14:25:40;77.13;;;31.23;;
19691;SDS011;42748;50.016;19.890;2022-11-13T14:28:28;75.65;;;31.33;;
19691;SDS011;42748;50.016;19.890;2022-11-13T14:31:18;82.90;;;33.15;;
19691;SDS011;42748;50.016;19.890;2022-11-13T14:34:08;75.20;;;31.75;;
19691;SDS011;42748;50.016;19.890;2022-11-13T14:40:18;79.50;;;32.30;;
19691;SDS011;42748;50.016;19.890;2022-11-13T14:43:07;77.82;;;31.38;;
19691;SDS011;42748;50.016;19.890;2022-11-13T14:46:01;76.55;;;32.50;;
19691;SDS011;42748;50.016;19.890;2022-11-13T14:48:53;71.15;;;30.55;;
19691;SDS011;42748;50.016;19.890;2022-11-13T14:51:40;75.78;;;31.02;;
19691;SDS011;42748;50.016;19.890;2022-11-13T14:54:33;77.10;;;32.47;;
19691;SDS011;42748;50.016;19.890;2022-11-13T14:57:47;76.83;;;32.03;;
19691;SDS011;42748;50.016;19.890;2022-11-13T15:00:35;73.47;;;31.50;;
19691;SDS011;42748;50.016;19.890;2022-11-13T15:03:22;73.50;;;32.10;;
19691;SDS011;42748;50.016;19.890;2022-11-13T15:06:16;72.10;;;31.03;;
19691;SDS011;42748;50.016;19.890;2022-11-13T15:09:10;75.37;;;33.10;;
19691;SDS011;42748;50.016;19.890;2022-11-13T15:11:58;74.60;;;31.95;;
19691;SDS011;42748;50.016;19.890;2022-11-13T15:14:44;73.95;;;31.40;;
19691;SDS011;42748;50.016;19.890;2022-11-13T15:17:30;72.17;;;30.97;;
19691;SDS011;42748;50.016;19.890;2022-11-13T15:20:26;71.25;;;30.73;;
19691;SDS011;42748;50.016;19.890;2022-11-13T15:23:13;70.25;;;30.70;;
19691;SDS011;42748;50.016;19.890;2022-11-13T15:26:00;73.10;;;32.35;;
19691;SDS011;42748;50.016;19.890;2022-11-13T15:28:45;70.68;;;31.85;;
19691;SDS011;42748;50.016;19.890;2022-11-13T15:31:32;71.18;;;32.30;;
19691;SDS011;42748;50.016;19.890;2022-11-13T15:34:24;72.15;;;31.40;;
19691;SDS011;42748;50.016;19.890;2022-11-13T15:37:11;74.38;;;31.88;;
19691;SDS011;42748;50.016;19.890;2022-11-13T15:39:58;73.18;;;32.20;;
19691;SDS011;42748;50.016;19.890;2022-11-13T15:42:44;76.38;;;33.58;;
19691;SDS011;42748;50.016;19.890;2022-11-13T15:45:30;74.28;;;32.65;;
19691;SDS011;42748;50.016;19.890;2022-11-13T15:48:17;73.18;;;32.97;;
19691;SDS011;42748;50.016;19.890;2022-11-13T15:51:02;76.70;;;33.33;;
19691;SDS011;42748;50.016;19.890;2022-11-13T15:53:49;78.82;;;34.40;;
19691;SDS011;42748;50.016;19.890;2022-11-13T15:56:46;78.17;;;32.63;;
19691;SDS011;42748;50.016;19.890;2022-11-13T15:59:32;75.67;;;33.63;;
19691;SDS011;42748;50.016;19.890;2022-11-13T16:02:17;79.20;;;33.57;;
19691;SDS011;42748;50.016;19.890;2022-11-13T16:05:03;79.03;;;33.65;;
19691;SDS011;42748;50.016;19.890;2022-11-13T16:07:50;77.93;;;34.37;;
19691;SDS011;42748;50.016;19.890;2022-11-13T16:10:37;85.00;;;34.93;;
19691;SDS011;42748;50.016;19.890;2022-11-13T16:13:23;84.13;;;36.27;;
19691;SDS011;42748;50.016;19.890;2022-11-13T16:16:19;82.07;;;35.70;;
19691;SDS011;42748;50.016;19.890;2022-11-13T16:19:21;75.85;;;33.30;;
19691;SDS011;42748;50.016;19.890;2022-11-13T16:22:22;80.73;;;33.07;;
19691;SDS011;42748;50.016;19.890;2022-11-13T16:25:14;83.73;;;34.67;;
19691;SDS011;42748;50.016;19.890;2022-11-13T16:28:02;86.30;;;33.97;;
19691;SDS011;42748;50.016;19.890;2022-11-13T16:30:48;87.57;;;35.80;;
19691;SDS011;42748;50.016;19.890;2022-11-13T16:33:35;79.57;;;34.43;;
19691;SDS011;42748;50.016;19.890;2022-11-13T16:36:21;76.80;;;33.08;;
19691;SDS011;42748;50.016;19.890;2022-11-13T16:39:08;82.07;;;33.35;;
19691;SDS011;42748;50.016;19.890;2022-11-13T16:41:59;84.30;;;34.20;;
19691;SDS011;42748;50.016;19.890;2022-11-13T16:44:44;86.38;;;34.17;;
19691;SDS011;42748;50.016;19.890;2022-11-13T16:47:30;94.35;;;35.63;;
19691;SDS011;42748;50.016;19.890;2022-11-13T16:50:23;96.27;;;36.03;;
19691;SDS011;42748;50.016;19.890;2022-11-13T16:53:15;91.43;;;35.43;;
19691;SDS011;42748;50.016;19.890;2022-11-13T16:56:01;93.78;;;36.92;;
19691;SDS011;42748;50.016;19.890;2022-11-13T16:58:54;90.53;;;36.72;;
19691;SDS011;42748;50.016;19.890;2022-11-13T17:01:41;93.32;;;34.90;;
19691;SDS011;42748;50.016;19.890;2022-11-13T17:04:27;101.05;;;36.83;;
19691;SDS011;42748;50.016;19.890;2022-11-13T17:07:13;100.60;;;38.65;;
19691;SDS011;42748;50.016;19.890;2022-11-13T17:09:59;109.03;;;38.00;;
19691;SDS011;42748;50.016;19.890;2022-11-13T17:13:05;109.25;;;38.13;;
19691;SDS011;42748;50.016;19.890;2022-11-13T17:15:50;96.43;;;37.53;;
19691;SDS011;42748;50.016;19.890;2022-11-13T17:18:35;97.28;;;36.85;;
19691;SDS011;42748;50.016;19.890;2022-11-13T17:21:22;104.93;;;36.72;;
19691;SDS011;42748;50.016;19.890;2022-11-13T17:24:09;102.68;;;36.70;;
19691;SDS011;42748;50.016;19.890;2022-11-13T17:26:55;105.90;;;37.78;;
19691;SDS011;42748;50.016;19.890;2022-11-13T17:29:41;108.32;;;38.22;;
19691;SDS011;42748;50.016;19.890;2022-11-13T17:32:26;106.18;;;39.08;;
19691;SDS011;42748;50.016;19.890;2022-11-13T17:35:12;103.72;;;38.40;;
19691;SDS011;42748;50.016;19.890;2022-11-13T17:37:58;111.38;;;39.85;;
19691;SDS011;42748;50.016;19.890;2022-11-13T17:40:43;112.78;;;39.13;;
19691;SDS011;42748;50.016;19.890;2022-11-13T17:43:29;107.32;;;40.33;;
19691;SDS011;42748;50.016;19.890;2022-11-13T17:46:16;104.60;;;38.90;;